Bell Plain, Illinois
Current Conditions -  °F | °C
As of 10:15 AM on Wednesday 22 Oct 2014 (Local Time) from KC75 Reporting Station
Clear Clear  
Wind Chill: 45°   Ceiling: Unl
Heat Index: 47°   Visibility: 10mi
Dew Point: 40°   Wind: 6mph
Humidity: 77%   Direction: 130°SE
Pressure: 30.35"   Gusts: NA
Location:  40.9824°N, 89.2315°W
Report Text: KC75 221515Z AUTO 13005KT 10SM CLR 09/05 A3035 RMK AO2 T00850046
Loading
Personal Weather Stations






























Interactive Weather Map
Tropical Storm Tracking
New forecast layout! Learn more

10-Day Weather Forecast

Advertisements
Track Severe Weather on mobile